Time;durP1;ratioP1;P1;durP2;ratioP2;P2;SDS_P1;SDS_P2;PMS_P1;PMS_P2;Temp;Humidity;BMP_temperature;BMP_pressure;BME280_temperature;BME280_humidity;BME280_pressure;Samples;Min_cycle;Max_cycle;Signal;HPM_P1;HPM_P2
2023/07/31 00:00:55;;;;;;;;;4.25;3.75;;;;;;;;5118659;27;45390;-43
2023/07/31 00:03:20;;;;;;;;;2.00;2.00;;;;;;;;5118867;27;45272;-44
2023/07/31 00:05:45;;;;;;;;;6.50;3.50;;;;;;;;5118609;27;46801;-43
2023/07/31 00:08:11;;;;;;;;;4.00;2.25;;;;;;;;5118664;27;45208;-43
2023/07/31 00:10:36;;;;;;;;;4.00;3.00;;;;;;;;5119192;27;45297;-43
2023/07/31 00:13:01;;;;;;;;;4.00;2.00;;;;;;;;5118717;27;45355;-44
2023/07/31 00:15:26;;;;;;;;;3.75;3.75;;;;;;;;5118408;27;45263;-44
2023/07/31 00:17:51;;;;;;;;;3.00;3.00;;;;;;;;5118214;27;45364;-41
2023/07/31 00:20:17;;;;;;;;;5.00;3.75;;;;;;;;5118504;27;45340;-43
2023/07/31 00:22:42;;;;;;;;;6.00;3.00;;;;;;;;5118358;27;45491;-42
2023/07/31 00:25:07;;;;;;;;;3.00;3.00;;;;;;;;5118214;27;47223;-43
2023/07/31 00:27:32;;;;;;;;;4.00;4.00;;;;;;;;5118262;27;45440;-44
2023/07/31 00:29:59;;;;;;;;;5.25;3.75;;;;;;;;5118478;27;45314;-44
2023/07/31 00:32:24;;;;;;;;;5.00;3.80;;;;;;;;5118617;27;45226;-42
2023/07/31 00:34:49;;;;;;;;;5.50;5.00;;;;;;;;5118118;27;46368;-43
2023/07/31 00:37:15;;;;;;;;;2.75;2.00;;;;;;;;5118387;27;45218;-42
2023/07/31 00:39:40;;;;;;;;;6.25;4.50;;;;;;;;5117758;27;45721;-43
2023/07/31 00:42:05;;;;;;;;;4.25;4.25;;;;;;;;5119251;27;45403;-42
2023/07/31 00:44:31;;;;;;;;;3.50;2.00;;;;;;;;5121495;27;45849;-40
2023/07/31 00:46:56;;;;;;;;;2.50;2.50;;;;;;;;5121713;27;45510;-41
2023/07/31 00:49:22;;;;;;;;;8.50;5.75;;;;;;;;5121656;27;45234;-43
2023/07/31 00:51:47;;;;;;;;;4.20;3.80;;;;;;;;5122120;27;45439;-42
2023/07/31 00:54:13;;;;;;;;;6.00;6.00;;;;;;;;5121469;27;46068;-42
2023/07/31 00:56:38;;;;;;;;;4.25;2.50;;;;;;;;5121211;27;45322;-41
2023/07/31 00:59:03;;;;;;;;;18.50;18.50;;;;;;;;5121778;27;45432;-43
2023/07/31 01:01:28;;;;;;;;;4.00;4.00;;;;;;;;5121641;27;45465;-42
2023/07/31 01:03:54;;;;;;;;;3.00;3.00;;;;;;;;5121421;27;45368;-43
2023/07/31 01:06:34;;;;;;;;;3.00;3.00;;;;;;;;5121385;27;45376;-43
2023/07/31 01:09:03;;;;;;;;;3.50;3.50;;;;;;;;5121404;27;45479;-43
2023/07/31 01:11:30;;;;;;;;;5.50;3.75;;;;;;;;5121494;27;45420;-43
2023/07/31 01:13:56;;;;;;;;;4.00;2.25;;;;;;;;5121310;27;45415;-43
2023/07/31 01:16:21;;;;;;;;;2.25;2.00;;;;;;;;5121168;27;45230;-44
2023/07/31 01:18:46;;;;;;;;;2.25;1.25;;;;;;;;5120295;27;45302;-43
2023/07/31 01:21:41;;;;;;;;;4.75;2.75;;;;;;;;5121431;27;45531;-43
2023/07/31 01:24:09;;;;;;;;;2.00;2.00;;;;;;;;5120771;27;46427;-43
2023/07/31 01:26:36;;;;;;;;;4.60;4.00;;;;;;;;5121031;27;45235;-43
2023/07/31 01:29:03;;;;;;;;;3.40;3.00;;;;;;;;5121264;27;45448;-43
2023/07/31 01:31:29;;;;;;;;;7.50;2.75;;;;;;;;5121155;27;45472;-43
2023/07/31 01:33:56;;;;;;;;;5.75;3.50;;;;;;;;5120774;27;46286;-45
2023/07/31 01:36:21;;;;;;;;;2.60;2.60;;;;;;;;5121004;27;45458;-46
2023/07/31 01:38:47;;;;;;;;;5.50;4.00;;;;;;;;5121107;27;45250;-44
2023/07/31 01:41:12;;;;;;;;;5.00;4.00;;;;;;;;5121230;27;45360;-43
2023/07/31 01:43:37;;;;;;;;;7.00;3.50;;;;;;;;5120603;27;46450;-44
2023/07/31 01:46:02;;;;;;;;;4.75;3.25;;;;;;;;5120847;27;45290;-43
2023/07/31 01:48:27;;;;;;;;;4.50;3.75;;;;;;;;5120887;27;45268;-46
2023/07/31 01:50:53;;;;;;;;;4.75;3.00;;;;;;;;5120954;27;45373;-41
2023/07/31 01:53:18;;;;;;;;;3.75;2.00;;;;;;;;5119933;27;45278;-42
2023/07/31 01:55:43;;;;;;;;;2.00;2.00;;;;;;;;5120380;27;45387;-45
2023/07/31 01:58:09;;;;;;;;;5.00;2.00;;;;;;;;5120869;27;45329;-42
2023/07/31 02:00:34;;;;;;;;;2.50;2.50;;;;;;;;5120901;27;45229;-45
2023/07/31 02:02:59;;;;;;;;;0.75;0.75;;;;;;;;5120152;27;46056;-43
2023/07/31 02:05:24;;;;;;;;;1.25;1.25;;;;;;;;5120071;27;45226;-43
2023/07/31 02:07:50;;;;;;;;;1.25;1.25;;;;;;;;5120311;27;45545;-44
2023/07/31 02:10:15;;;;;;;;;3.00;3.00;;;;;;;;5120381;27;45520;-42
2023/07/31 02:12:40;;;;;;;;;2.00;2.00;;;;;;;;5119982;27;46013;-41
2023/07/31 02:15:06;;;;;;;;;3.00;2.00;;;;;;;;5120236;27;45144;-43
2023/07/31 02:17:31;;;;;;;;;2.00;2.00;;;;;;;;5120306;27;45408;-42
2023/07/31 02:19:56;;;;;;;;;1.50;1.00;;;;;;;;5120483;27;46081;-41
2023/07/31 02:22:21;;;;;;;;;3.00;3.00;;;;;;;;5119791;27;45299;-43
2023/07/31 02:24:46;;;;;;;;;4.00;2.25;;;;;;;;5120147;27;45435;-41
2023/07/31 02:27:12;;;;;;;;;5.25;1.25;;;;;;;;5119832;27;45353;-44
2023/07/31 02:29:37;;;;;;;;;3.00;1.00;;;;;;;;5120331;27;45425;-44
2023/07/31 02:32:02;;;;;;;;;3.00;3.00;;;;;;;;5119924;27;45303;-44
2023/07/31 02:34:27;;;;;;;;;1.00;1.00;;;;;;;;5119822;27;45350;-44
2023/07/31 02:36:53;;;;;;;;;1.50;1.00;;;;;;;;5120010;27;45420;-43
2023/07/31 02:39:18;;;;;;;;;2.25;2.25;;;;;;;;5120103;27;45430;-42
2023/07/31 02:41:43;;;;;;;;;3.75;2.50;;;;;;;;5119764;27;46168;-42
2023/07/31 02:44:08;;;;;;;;;1.25;1.25;;;;;;;;5119436;27;45551;-44
2023/07/31 02:46:33;;;;;;;;;1.00;1.00;;;;;;;;5119364;27;45358;-43
2023/07/31 02:48:59;;;;;;;;;4.00;2.00;;;;;;;;5120011;27;45329;-44
2023/07/31 02:51:24;;;;;;;;;0.50;0.50;;;;;;;;5119452;27;45624;-42
2023/07/31 02:53:49;;;;;;;;;4.25;2.00;;;;;;;;5119600;27;45295;-42
2023/07/31 02:56:14;;;;;;;;;2.50;2.00;;;;;;;;5119526;27;45290;-42
2023/07/31 02:58:40;;;;;;;;;2.50;2.00;;;;;;;;5119804;27;45510;-41
2023/07/31 03:01:05;;;;;;;;;3.00;3.00;;;;;;;;5119404;27;47346;-43
2023/07/31 03:03:30;;;;;;;;;2.50;1.00;;;;;;;;5119320;27;45346;-47
2023/07/31 03:05:55;;;;;;;;;1.25;1.25;;;;;;;;5118616;27;45397;-42
2023/07/31 03:08:21;;;;;;;;;2.00;2.00;;;;;;;;5119781;27;45455;-42
2023/07/31 03:10:46;;;;;;;;;3.50;2.00;;;;;;;;5119235;27;45322;-42
2023/07/31 03:13:11;;;;;;;;;4.00;2.50;;;;;;;;5119138;27;45424;-42
2023/07/31 03:15:36;;;;;;;;;2.50;2.00;;;;;;;;5119234;27;45337;-42
2023/07/31 03:18:01;;;;;;;;;3.50;2.00;;;;;;;;5119542;27;45285;-43
2023/07/31 03:20:26;;;;;;;;;2.75;2.75;;;;;;;;5118843;27;46525;-43
2023/07/31 03:22:52;;;;;;;;;2.00;1.50;;;;;;;;5118934;27;45386;-43
2023/07/31 03:25:17;;;;;;;;;4.75;3.50;;;;;;;;5119049;27;45222;-42
2023/07/31 03:27:43;;;;;;;;;1.75;1.75;;;;;;;;5100645;27;45216;-43
2023/07/31 03:30:09;;;;;;;;;2.75;1.00;;;;;;;;5118723;27;45267;-43
2023/07/31 03:32:34;;;;;;;;;4.25;2.00;;;;;;;;5118803;27;45379;-43
2023/07/31 03:34:59;;;;;;;;;2.00;1.75;;;;;;;;5118817;27;45560;-42
2023/07/31 03:37:25;;;;;;;;;2.00;1.25;;;;;;;;5119060;27;46117;-41
2023/07/31 03:39:50;;;;;;;;;4.00;1.00;;;;;;;;5118678;27;46479;-43
2023/07/31 03:42:15;;;;;;;;;2.25;2.00;;;;;;;;5118220;27;45236;-43
2023/07/31 03:44:40;;;;;;;;;5.50;4.00;;;;;;;;5118801;27;45180;-43
2023/07/31 03:47:05;;;;;;;;;2.75;2.75;;;;;;;;5118673;27;45451;-42
2023/07/31 03:49:31;;;;;;;;;2.00;2.00;;;;;;;;5118420;27;47123;-41
2023/07/31 03:51:56;;;;;;;;;4.00;2.25;;;;;;;;5118531;27;45376;-43
2023/07/31 03:54:21;;;;;;;;;2.75;1.00;;;;;;;;5118597;27;45394;-44
2023/07/31 03:56:46;;;;;;;;;0.75;0.75;;;;;;;;5118137;27;45666;-43
2023/07/31 03:59:11;;;;;;;;;2.00;0.00;;;;;;;;5118300;27;46062;-41
2023/07/31 04:01:37;;;;;;;;;2.25;2.00;;;;;;;;5118485;27;45354;-42
2023/07/31 04:04:02;;;;;;;;;2.00;2.00;;;;;;;;5118618;27;45222;-43
2023/07/31 04:06:27;;;;;;;;;4.75;3.00;;;;;;;;5118711;27;45394;-43
2023/07/31 04:08:52;;;;;;;;;2.00;2.00;;;;;;;;5118001;27;46284;-41
2023/07/31 04:11:17;;;;;;;;;2.00;2.00;;;;;;;;5118181;27;45507;-42
2023/07/31 04:13:43;;;;;;;;;1.50;1.50;;;;;;;;5118264;27;45349;-43
2023/07/31 04:16:08;;;;;;;;;2.00;2.00;;;;;;;;5118449;27;45356;-42
2023/07/31 04:18:33;;;;;;;;;2.50;2.00;;;;;;;;5118141;27;45516;-42
2023/07/31 04:20:58;;;;;;;;;1.00;1.00;;;;;;;;5118142;27;45456;-43
2023/07/31 04:23:24;;;;;;;;;3.75;2.50;;;;;;;;5118181;27;45356;-43
2023/07/31 04:25:49;;;;;;;;;3.50;2.25;;;;;;;;5118408;27;45376;-45
2023/07/31 04:28:14;;;;;;;;;2.00;1.00;;;;;;;;5118007;27;46875;-43
2023/07/31 04:30:40;;;;;;;;;2.00;2.00;;;;;;;;5118124;27;45314;-44
2023/07/31 04:33:05;;;;;;;;;1.00;1.00;;;;;;;;5118020;27;45353;-43
2023/07/31 04:35:30;;;;;;;;;2.00;1.00;;;;;;;;5118186;27;45276;-43
2023/07/31 04:37:55;;;;;;;;;3.00;2.25;;;;;;;;5117280;27;45283;-42
2023/07/31 04:40:21;;;;;;;;;2.75;1.75;;;;;;;;5118098;27;45362;-43
2023/07/31 04:42:46;;;;;;;;;5.00;2.00;;;;;;;;5116946;27;45432;-42
2023/07/31 04:45:11;;;;;;;;;2.75;1.75;;;;;;;;5118081;27;45436;-44
2023/07/31 04:47:36;;;;;;;;;2.00;2.00;;;;;;;;5117830;27;46137;-43
2023/07/31 04:50:02;;;;;;;;;4.00;2.75;;;;;;;;5117635;27;45361;-44
2023/07/31 04:52:27;;;;;;;;;2.50;1.50;;;;;;;;5099383;27;45307;-43
2023/07/31 04:54:52;;;;;;;;;2.00;2.00;;;;;;;;5117836;27;45366;-44
2023/07/31 04:57:17;;;;;;;;;4.00;4.00;;;;;;;;5117620;27;46269;-42
2023/07/31 04:59:42;;;;;;;;;3.00;2.00;;;;;;;;5117784;27;45279;-41
2023/07/31 05:02:08;;;;;;;;;4.00;3.50;;;;;;;;5117784;27;45349;-41
2023/07/31 05:04:33;;;;;;;;;2.25;1.00;;;;;;;;5117783;27;45236;-43
2023/07/31 05:06:59;;;;;;;;;3.75;2.00;;;;;;;;5117324;27;47178;-43
2023/07/31 05:09:24;;;;;;;;;3.00;3.00;;;;;;;;5117577;27;45152;-43
2023/07/31 05:11:49;;;;;;;;;5.50;5.00;;;;;;;;5117596;27;45492;-43
2023/07/31 05:14:15;;;;;;;;;3.50;2.00;;;;;;;;5117725;27;45423;-42
2023/07/31 05:16:40;;;;;;;;;2.75;2.75;;;;;;;;5117287;27;46642;-43
2023/07/31 05:19:06;;;;;;;;;2.50;2.25;;;;;;;;5117531;27;45211;-43
2023/07/31 05:21:31;;;;;;;;;3.00;2.75;;;;;;;;5117863;27;45319;-44
2023/07/31 05:23:56;;;;;;;;;7.25;3.75;;;;;;;;5117851;27;45521;-44
2023/07/31 05:26:21;;;;;;;;;7.00;2.00;;;;;;;;5117521;27;46441;-44
2023/07/31 05:28:46;;;;;;;;;3.00;2.75;;;;;;;;5119597;27;45385;-43
2023/07/31 05:31:12;;;;;;;;;4.25;3.75;;;;;;;;5102446;27;45446;-42
2023/07/31 05:33:37;;;;;;;;;4.50;3.50;;;;;;;;5121082;27;45241;-41
2023/07/31 05:36:02;;;;;;;;;3.00;3.00;;;;;;;;5120817;27;45389;-43
2023/07/31 05:38:27;;;;;;;;;2.00;2.00;;;;;;;;5120627;27;45396;-41
2023/07/31 05:40:52;;;;;;;;;3.00;3.00;;;;;;;;5120924;27;45368;-44
2023/07/31 05:43:18;;;;;;;;;6.25;3.75;;;;;;;;5120852;27;45278;-43
2023/07/31 05:45:43;;;;;;;;;6.75;3.00;;;;;;;;5120423;27;46191;-43
2023/07/31 05:48:08;;;;;;;;;2.00;2.00;;;;;;;;5120448;27;45385;-43
2023/07/31 05:50:33;;;;;;;;;5.50;4.00;;;;;;;;5120709;27;45389;-43
2023/07/31 05:52:59;;;;;;;;;4.25;3.25;;;;;;;;5120847;27;45278;-41
2023/07/31 05:55:26;;;;;;;;;4.25;3.75;;;;;;;;5120476;27;46065;-40
2023/07/31 05:57:51;;;;;;;;;5.50;4.00;;;;;;;;5120488;27;45293;-42
2023/07/31 06:00:17;;;;;;;;;9.50;6.00;;;;;;;;5120627;27;45270;-42
2023/07/31 06:02:42;;;;;;;;;5.75;4.00;;;;;;;;5120516;27;45179;-41
2023/07/31 06:05:07;;;;;;;;;4.75;4.75;;;;;;;;5120303;27;45336;-42
2023/07/31 06:07:32;;;;;;;;;8.50;4.25;;;;;;;;5120281;27;45493;-42
2023/07/31 06:10:03;;;;;;;;;7.50;4.00;;;;;;;;5120423;27;45412;-43
2023/07/31 06:12:28;;;;;;;;;4.00;4.00;;;;;;;;5119722;27;45531;-42
2023/07/31 06:14:53;;;;;;;;;7.50;5.00;;;;;;;;5119689;27;45827;-42
2023/07/31 06:17:19;;;;;;;;;4.75;4.00;;;;;;;;5120171;27;45283;-42
2023/07/31 06:19:44;;;;;;;;;6.00;4.25;;;;;;;;5120307;27;45309;-43
2023/07/31 06:22:09;;;;;;;;;5.75;4.75;;;;;;;;5120448;27;45448;-42
2023/07/31 06:24:34;;;;;;;;;10.00;6.00;;;;;;;;5119696;27;45494;-42
2023/07/31 06:26:59;;;;;;;;;8.75;5.00;;;;;;;;5120158;27;45448;-41
2023/07/31 06:29:25;;;;;;;;;6.75;6.00;;;;;;;;5120037;27;45369;-44
2023/07/31 06:31:50;;;;;;;;;6.50;5.00;;;;;;;;5120426;27;45411;-44
2023/07/31 06:34:15;;;;;;;;;8.25;5.00;;;;;;;;5119702;27;45295;-44
2023/07/31 06:36:40;;;;;;;;;6.00;6.00;;;;;;;;5119356;27;45406;-43
2023/07/31 06:39:05;;;;;;;;;5.25;4.25;;;;;;;;5100597;27;45370;-44
2023/07/31 06:41:30;;;;;;;;;6.75;6.25;;;;;;;;5119553;27;45422;-45
2023/07/31 06:43:56;;;;;;;;;7.50;5.00;;;;;;;;5119626;27;46367;-44
2023/07/31 06:46:21;;;;;;;;;6.25;5.25;;;;;;;;5119868;27;45282;-42
2023/07/31 06:48:46;;;;;;;;;9.50;4.50;;;;;;;;5119789;27;45324;-42
2023/07/31 06:51:11;;;;;;;;;4.75;4.00;;;;;;;;5119925;27;45485;-43
2023/07/31 06:53:37;;;;;;;;;9.75;5.75;;;;;;;;5119699;27;45365;-43
2023/07/31 06:56:02;;;;;;;;;9.25;5.75;;;;;;;;5119578;27;45246;-48
2023/07/31 06:58:27;;;;;;;;;9.75;7.00;;;;;;;;5119604;27;45208;-43
2023/07/31 07:00:52;;;;;;;;;7.75;4.50;;;;;;;;5119841;27;45333;-43
2023/07/31 07:03:18;;;;;;;;;6.50;4.00;;;;;;;;5119463;27;46487;-45
2023/07/31 07:05:43;;;;;;;;;10.50;4.75;;;;;;;;5119576;27;45425;-43
2023/07/31 07:08:08;;;;;;;;;7.00;5.00;;;;;;;;5119446;27;45404;-43
2023/07/31 07:10:33;;;;;;;;;9.25;6.50;;;;;;;;5119602;27;45238;-41
2023/07/31 07:12:59;;;;;;;;;8.50;7.00;;;;;;;;5118542;27;45580;-42
2023/07/31 07:15:24;;;;;;;;;6.75;4.25;;;;;;;;5119343;27;45202;-42
2023/07/31 07:17:49;;;;;;;;;7.75;4.75;;;;;;;;5119418;27;45220;-50
2023/07/31 07:20:15;;;;;;;;;9.00;6.00;;;;;;;;5119837;27;45330;-42
2023/07/31 07:22:42;;;;;;;;;5.75;5.50;;;;;;;;5118608;27;46413;-43
2023/07/31 07:25:08;;;;;;;;;11.50;8.00;;;;;;;;5100578;27;45334;-44
2023/07/31 07:27:33;;;;;;;;;7.00;7.00;;;;;;;;5119442;27;45264;-44
2023/07/31 07:29:58;;;;;;;;;5.75;4.75;;;;;;;;5119412;27;45353;-43
2023/07/31 07:32:23;;;;;;;;;8.25;6.50;;;;;;;;5118946;27;46185;-44
2023/07/31 07:34:49;;;;;;;;;4.75;4.25;;;;;;;;5118938;27;45424;-45
2023/07/31 07:37:14;;;;;;;;;10.00;7.50;;;;;;;;5119250;27;45336;-44
2023/07/31 07:39:39;;;;;;;;;13.00;7.50;;;;;;;;5119408;27;45292;-43
2023/07/31 07:42:04;;;;;;;;;6.00;6.00;;;;;;;;5118780;27;46031;-44
2023/07/31 07:44:30;;;;;;;;;7.75;7.00;;;;;;;;5118476;27;45351;-42
2023/07/31 07:46:55;;;;;;;;;7.50;5.75;;;;;;;;5118984;27;45299;-44
2023/07/31 07:49:22;;;;;;;;;9.50;5.50;;;;;;;;5119058;27;45484;-44
2023/07/31 07:51:47;;;;;;;;;8.00;8.00;;;;;;;;5118270;27;45306;-44
2023/07/31 07:54:13;;;;;;;;;9.50;6.00;;;;;;;;5118697;27;45326;-44
2023/07/31 07:56:39;;;;;;;;;11.00;4.25;;;;;;;;5118704;27;45358;-43
2023/07/31 07:59:04;;;;;;;;;8.25;6.25;;;;;;;;5118945;27;45319;-44
2023/07/31 08:01:29;;;;;;;;;5.00;5.00;;;;;;;;5118429;27;46398;-45
2023/07/31 08:03:54;;;;;;;;;7.75;5.75;;;;;;;;5118149;27;45424;-44
2023/07/31 08:06:19;;;;;;;;;7.50;5.00;;;;;;;;5118634;27;45417;-42
2023/07/31 08:08:45;;;;;;;;;8.50;5.00;;;;;;;;5118811;27;45230;-44
2023/07/31 08:11:10;;;;;;;;;7.00;5.75;;;;;;;;5118561;27;46016;-45
2023/07/31 08:13:36;;;;;;;;;8.00;6.50;;;;;;;;5118279;27;45195;-43
2023/07/31 08:16:02;;;;;;;;;7.00;7.00;;;;;;;;5118206;27;45200;-45
2023/07/31 08:18:27;;;;;;;;;7.25;4.75;;;;;;;;5118565;27;45542;-45
2023/07/31 08:20:52;;;;;;;;;8.25;6.00;;;;;;;;5118268;27;45926;-43
2023/07/31 08:23:17;;;;;;;;;10.00;4.75;;;;;;;;5118337;27;45438;-44
2023/07/31 08:25:43;;;;;;;;;5.75;5.00;;;;;;;;5099954;27;45477;-43
2023/07/31 08:28:08;;;;;;;;;8.00;5.50;;;;;;;;5118543;27;45437;-44
2023/07/31 08:30:33;;;;;;;;;5.00;4.50;;;;;;;;5118205;27;46118;-43
2023/07/31 08:32:59;;;;;;;;;8.00;6.00;;;;;;;;5117943;27;45317;-42
2023/07/31 08:35:25;;;;;;;;;7.75;6.50;;;;;;;;5118384;27;45360;-44
2023/07/31 08:37:50;;;;;;;;;8.00;4.75;;;;;;;;5118570;27;45460;-42
2023/07/31 08:40:15;;;;;;;;;7.00;5.00;;;;;;;;5118152;27;46165;-42
2023/07/31 08:42:48;;;;;;;;;4.00;4.00;;;;;;;;5118128;27;45369;-41
2023/07/31 08:45:15;;;;;;;;;8.20;6.00;;;;;;;;5118131;27;45408;-41
2023/07/31 08:47:42;;;;;;;;;7.40;5.00;;;;;;;;5118356;27;45341;-43
2023/07/31 08:50:07;;;;;;;;;9.00;6.00;;;;;;;;5117792;27;45310;-44
2023/07/31 08:52:32;;;;;;;;;7.75;5.75;;;;;;;;5117740;27;45323;-42
2023/07/31 08:54:59;;;;;;;;;5.25;4.25;;;;;;;;5117896;27;45283;-43
2023/07/31 08:57:24;;;;;;;;;5.00;5.00;;;;;;;;5118080;27;45511;-41
2023/07/31 08:59:50;;;;;;;;;5.75;5.00;;;;;;;;5117887;27;46123;-42
2023/07/31 09:02:16;;;;;;;;;4.50;4.00;;;;;;;;5117796;27;45344;-43
2023/07/31 09:04:41;;;;;;;;;7.20;6.60;;;;;;;;5102862;27;45375;-43
2023/07/31 09:07:09;;;;;;;;;5.50;3.50;;;;;;;;5121970;27;45450;-45
2023/07/31 09:09:34;;;;;;;;;5.60;5.20;;;;;;;;5121249;27;46431;-42
2023/07/31 09:11:59;;;;;;;;;8.00;6.25;;;;;;;;5121577;27;45420;-45
2023/07/31 09:14:25;;;;;;;;;8.75;5.00;;;;;;;;5121360;27;45359;-42
2023/07/31 09:16:59;;;;;;;;;8.00;4.25;;;;;;;;5121507;27;45541;-42
2023/07/31 09:19:36;;;;;;;;;8.80;5.40;;;;;;;;5121084;27;46906;-43
2023/07/31 09:22:02;;;;;;;;;5.40;5.40;;;;;;;;5121074;27;45444;-44
2023/07/31 09:24:30;;;;;;;;;5.00;5.00;;;;;;;;5121360;27;45247;-44
2023/07/31 09:26:56;;;;;;;;;5.50;4.00;;;;;;;;5121341;27;45293;-43
2023/07/31 09:29:22;;;;;;;;;4.75;4.75;;;;;;;;5102345;27;46803;-43
2023/07/31 09:31:47;;;;;;;;;5.50;5.00;;;;;;;;5120980;27;45430;-42
2023/07/31 09:34:16;;;;;;;;;5.50;4.00;;;;;;;;5121005;27;45294;-44
2023/07/31 09:36:42;;;;;;;;;7.60;6.80;;;;;;;;5121108;27;45333;-42
2023/07/31 09:39:09;;;;;;;;;5.60;4.20;;;;;;;;5120728;27;46701;-45
2023/07/31 09:41:38;;;;;;;;;6.20;4.00;;;;;;;;5120865;27;45292;-43
2023/07/31 09:44:03;;;;;;;;;8.60;4.00;;;;;;;;5120843;27;45259;-43
2023/07/31 09:46:29;;;;;;;;;7.00;4.75;;;;;;;;5121238;27;45322;-44
2023/07/31 09:49:02;;;;;;;;;7.40;5.00;;;;;;;;5120700;27;45276;-42
2023/07/31 09:51:28;;;;;;;;;6.40;4.60;;;;;;;;5120693;27;45460;-45
2023/07/31 09:53:53;;;;;;;;;5.00;4.50;;;;;;;;5120777;27;45370;-44
2023/07/31 09:56:20;;;;;;;;;6.50;5.50;;;;;;;;5120923;27;45322;-44
2023/07/31 09:58:45;;;;;;;;;6.40;5.00;;;;;;;;5120405;27;46143;-42
2023/07/31 10:01:11;;;;;;;;;8.25;6.00;;;;;;;;5120415;27;45368;-42
2023/07/31 10:03:37;;;;;;;;;8.75;7.50;;;;;;;;5120585;27;45781;-43
2023/07/31 10:06:03;;;;;;;;;7.00;5.25;;;;;;;;5120951;27;45354;-43
2023/07/31 10:08:32;;;;;;;;;7.00;4.50;;;;;;;;5120427;27;46315;-44
2023/07/31 10:10:58;;;;;;;;;6.60;5.60;;;;;;;;5120464;27;45504;-45
2023/07/31 10:13:24;;;;;;;;;4.00;4.00;;;;;;;;5120219;27;45301;-42
2023/07/31 10:15:50;;;;;;;;;8.75;6.75;;;;;;;;5120481;27;45392;-42
2023/07/31 10:18:16;;;;;;;;;6.25;6.25;;;;;;;;5120269;27;45385;-44
2023/07/31 10:20:42;;;;;;;;;5.80;3.20;;;;;;;;5120209;27;45351;-44
2023/07/31 10:23:08;;;;;;;;;9.00;5.25;;;;;;;;5120208;27;45240;-43
2023/07/31 10:25:34;;;;;;;;;8.25;6.00;;;;;;;;5120566;27;45180;-43
2023/07/31 10:27:59;;;;;;;;;5.00;4.00;;;;;;;;5101395;27;47411;-43
2023/07/31 10:30:26;;;;;;;;;8.75;6.00;;;;;;;;5119894;27;45351;-42
2023/07/31 10:32:52;;;;;;;;;7.80;6.00;;;;;;;;5119835;27;45373;-43
2023/07/31 10:35:18;;;;;;;;;6.00;5.25;;;;;;;;5120295;27;45329;-43
2023/07/31 10:37:43;;;;;;;;;6.00;6.00;;;;;;;;5119904;27;45286;-42
2023/07/31 10:40:12;;;;;;;;;7.00;5.50;;;;;;;;5119987;27;45402;-43
2023/07/31 10:42:44;;;;;;;;;4.00;4.00;;;;;;;;5120095;27;45288;-43
2023/07/31 10:45:10;;;;;;;;;9.25;6.00;;;;;;;;5119972;27;45532;-43
2023/07/31 10:47:43;;;;;;;;;9.00;6.00;;;;;;;;5119628;27;46177;-41
2023/07/31 10:50:23;;;;;;;;;6.40;6.40;;;;;;;;5119883;27;45422;-43
2023/07/31 10:52:55;;;;;;;;;11.25;5.25;;;;;;;;5119786;27;45452;-42
2023/07/31 10:55:23;;;;;;;;;10.25;5.00;;;;;;;;5119824;27;45302;-43
2023/07/31 10:57:49;;;;;;;;;6.50;6.00;;;;;;;;5119316;27;46314;-44
2023/07/31 11:00:21;;;;;;;;;6.50;6.00;;;;;;;;5119386;27;45419;-42
2023/07/31 11:02:57;;;;;;;;;8.60;7.00;;;;;;;;5119565;27;45338;-43
2023/07/31 11:05:40;;;;;;;;;7.25;5.00;;;;;;;;5119601;27;45471;-43
2023/07/31 11:08:26;;;;;;;;;9.75;6.25;;;;;;;;5119330;27;46229;-42
2023/07/31 11:11:04;;;;;;;;;4.60;4.00;;;;;;;;5118538;27;45393;-43
2023/07/31 11:13:30;;;;;;;;;6.60;5.00;;;;;;;;5119516;27;45361;-42
2023/07/31 11:15:55;;;;;;;;;7.25;6.00;;;;;;;;5119672;27;45338;-42
2023/07/31 11:18:20;;;;;;;;;9.50;5.00;;;;;;;;5119245;27;45407;-42
2023/07/31 11:20:46;;;;;;;;;7.50;5.50;;;;;;;;5119444;27;45232;-41
2023/07/31 11:23:11;;;;;;;;;6.25;5.00;;;;;;;;5119379;27;45479;-43
2023/07/31 11:25:38;;;;;;;;;8.00;4.75;;;;;;;;5118726;27;45316;-43
2023/07/31 11:28:07;;;;;;;;;8.25;6.25;;;;;;;;5119103;27;46208;-43
2023/07/31 11:30:33;;;;;;;;;10.80;7.00;;;;;;;;5118919;27;45539;-41
2023/07/31 11:32:59;;;;;;;;;7.00;7.00;;;;;;;;5119072;27;45504;-42
2023/07/31 11:35:24;;;;;;;;;13.25;8.00;;;;;;;;5119483;27;45393;-42
2023/07/31 11:37:49;;;;;;;;;8.50;8.50;;;;;;;;5119099;27;46249;-42
2023/07/31 11:40:15;;;;;;;;;6.00;6.00;;;;;;;;5119088;27;45433;-43
2023/07/31 11:42:40;;;;;;;;;13.75;7.75;;;;;;;;5118901;27;45486;-42
2023/07/31 11:45:06;;;;;;;;;10.00;9.00;;;;;;;;5119341;27;45197;-42
2023/07/31 11:47:35;;;;;;;;;10.25;9.50;;;;;;;;5118980;27;45395;-42
2023/07/31 11:50:01;;;;;;;;;10.00;5.80;;;;;;;;5118795;27;45333;-44
2023/07/31 11:52:27;;;;;;;;;8.25;7.00;;;;;;;;5118843;27;45318;-43
2023/07/31 11:54:52;;;;;;;;;9.00;7.25;;;;;;;;5118935;27;45417;-42
2023/07/31 11:57:18;;;;;;;;;9.75;6.25;;;;;;;;5119064;27;46210;-43
2023/07/31 11:59:44;;;;;;;;;6.80;4.40;;;;;;;;5118315;27;45335;-42
2023/07/31 12:02:09;;;;;;;;;8.75;8.25;;;;;;;;5118683;27;45249;-42
2023/07/31 12:04:35;;;;;;;;;8.25;8.25;;;;;;;;5118948;27;45219;-43
2023/07/31 12:07:00;;;;;;;;;6.25;5.25;;;;;;;;5118535;27;46988;-42
2023/07/31 12:09:26;;;;;;;;;13.00;9.25;;;;;;;;5118454;27;45405;-41
2023/07/31 12:11:51;;;;;;;;;7.00;6.00;;;;;;;;5118572;27;45487;-41
2023/07/31 12:14:21;;;;;;;;;10.25;8.75;;;;;;;;5118626;27;45486;-43
2023/07/31 12:16:47;;;;;;;;;6.80;6.80;;;;;;;;5118044;27;46393;-43
2023/07/31 12:19:12;;;;;;;;;9.00;6.00;;;;;;;;5118394;27;45315;-43
2023/07/31 12:21:37;;;;;;;;;9.00;8.00;;;;;;;;5118594;27;45345;-42
2023/07/31 12:24:03;;;;;;;;;8.25;6.75;;;;;;;;5118413;27;45426;-43
2023/07/31 12:26:33;;;;;;;;;9.00;6.00;;;;;;;;5117973;27;46079;-40
2023/07/31 12:28:59;;;;;;;;;8.80;8.80;;;;;;;;5117336;27;45428;-42
2023/07/31 12:31:27;;;;;;;;;8.50;8.00;;;;;;;;5118411;27;45351;-42
2023/07/31 12:33:52;;;;;;;;;8.50;8.00;;;;;;;;5118274;27;45413;-43
2023/07/31 12:36:21;;;;;;;;;9.75;6.00;;;;;;;;5117997;27;46417;-43
2023/07/31 12:38:46;;;;;;;;;9.40;5.80;;;;;;;;5121667;27;45437;-42
2023/07/31 12:41:11;;;;;;;;;9.75;7.00;;;;;;;;5121945;27;45325;-43
2023/07/31 12:43:37;;;;;;;;;7.50;5.50;;;;;;;;5103547;27;45413;-43
2023/07/31 12:46:03;;;;;;;;;5.00;5.00;;;;;;;;5121427;27;46307;-43
2023/07/31 12:48:28;;;;;;;;;5.75;4.00;;;;;;;;5121695;27;45337;-44
2023/07/31 12:50:53;;;;;;;;;5.75;5.75;;;;;;;;5121811;27;45476;-43
2023/07/31 12:53:19;;;;;;;;;6.75;5.75;;;;;;;;5122085;27;45441;-43
2023/07/31 12:55:44;;;;;;;;;8.50;4.75;;;;;;;;5121525;27;45361;-42
2023/07/31 12:58:09;;;;;;;;;5.00;5.00;;;;;;;;5121654;27;45330;-42
2023/07/31 13:00:34;;;;;;;;;6.00;6.00;;;;;;;;5121453;27;45333;-41
2023/07/31 13:03:00;;;;;;;;;7.25;5.75;;;;;;;;5121735;27;45412;-41
2023/07/31 13:05:26;;;;;;;;;6.00;6.00;;;;;;;;5103097;27;46048;-42
2023/07/31 13:07:51;;;;;;;;;7.75;6.75;;;;;;;;5121180;27;45421;-43
2023/07/31 13:10:17;;;;;;;;;11.00;7.50;;;;;;;;5121380;27;45480;-43
2023/07/31 13:12:42;;;;;;;;;9.75;7.00;;;;;;;;5121589;27;45400;-42
2023/07/31 13:15:07;;;;;;;;;7.50;7.00;;;;;;;;5121104;27;46012;-43
2023/07/31 13:17:32;;;;;;;;;5.75;5.50;;;;;;;;5102672;27;46220;-43
2023/07/31 13:19:58;;;;;;;;;8.75;7.00;;;;;;;;5120881;27;45516;-44
2023/07/31 13:22:23;;;;;;;;;8.25;6.00;;;;;;;;5121716;27;45330;-44
2023/07/31 13:24:48;;;;;;;;;10.25;8.50;;;;;;;;5121076;27;45278;-44
2023/07/31 13:27:16;;;;;;;;;8.75;7.75;;;;;;;;5120275;27;45365;-42
2023/07/31 13:29:41;;;;;;;;;7.80;5.40;;;;;;;;5121345;27;45254;-47
2023/07/31 13:32:07;;;;;;;;;7.75;5.00;;;;;;;;5121089;27;45509;-46
2023/07/31 13:34:32;;;;;;;;;6.00;6.00;;;;;;;;5120538;27;46847;-42
2023/07/31 13:36:57;;;;;;;;;9.25;7.50;;;;;;;;5121197;27;45268;-43
2023/07/31 13:39:22;;;;;;;;;7.00;5.50;;;;;;;;5121217;27;45369;-43
2023/07/31 13:41:47;;;;;;;;;8.75;7.50;;;;;;;;5121463;27;45318;-44
2023/07/31 13:44:13;;;;;;;;;8.00;6.00;;;;;;;;5120798;27;45318;-43
2023/07/31 13:46:39;;;;;;;;;3.75;3.75;;;;;;;;5120826;27;45403;-43
2023/07/31 13:49:04;;;;;;;;;7.50;5.50;;;;;;;;5120143;27;45398;-42
2023/07/31 13:51:29;;;;;;;;;9.75;5.00;;;;;;;;5120846;27;45471;-42
2023/07/31 13:53:54;;;;;;;;;8.00;4.50;;;;;;;;5120274;27;46403;-41
2023/07/31 13:56:19;;;;;;;;;5.50;4.75;;;;;;;;5120511;27;45269;-40
2023/07/31 13:58:45;;;;;;;;;6.25;6.00;;;;;;;;5102113;27;45393;-41
2023/07/31 14:01:10;;;;;;;;;6.25;5.00;;;;;;;;5120832;27;45551;-41
2023/07/31 14:03:35;;;;;;;;;5.50;5.50;;;;;;;;5120286;27;46148;-42
2023/07/31 14:06:00;;;;;;;;;6.50;5.00;;;;;;;;5120647;27;45299;-41
2023/07/31 14:08:25;;;;;;;;;4.00;3.00;;;;;;;;5120824;27;45266;-44
2023/07/31 14:10:51;;;;;;;;;8.00;5.00;;;;;;;;5121091;27;45295;-45
2023/07/31 14:13:16;;;;;;;;;4.00;4.00;;;;;;;;5120976;27;46078;-43
2023/07/31 14:15:42;;;;;;;;;4.75;4.25;;;;;;;;5120019;27;45529;-43
2023/07/31 14:18:07;;;;;;;;;5.75;4.00;;;;;;;;5121220;27;45375;-42
2023/07/31 14:20:32;;;;;;;;;5.00;5.00;;;;;;;;5120294;27;45418;-43
2023/07/31 14:22:58;;;;;;;;;10.75;8.75;;;;;;;;5120198;27;45392;-41
2023/07/31 14:25:24;;;;;;;;;5.40;4.00;;;;;;;;5119572;27;45215;-43
2023/07/31 14:27:49;;;;;;;;;5.75;5.75;;;;;;;;5120157;27;45284;-42
2023/07/31 14:30:14;;;;;;;;;3.25;3.25;;;;;;;;5120489;27;45207;-42
2023/07/31 14:32:39;;;;;;;;;4.50;4.50;;;;;;;;5119646;27;46351;-42
2023/07/31 14:35:05;;;;;;;;;6.75;4.50;;;;;;;;5119789;27;45409;-43